sensor_id;sensor_type;location;lat;lon;timestamp;temperature;humidity
10536;DHT22;5316;49.538;8.352;2023-11-22T00:01:34;6.80;1.00
10536;DHT22;5316;49.538;8.352;2023-11-22T00:04:04;6.80;1.00
10536;DHT22;5316;49.538;8.352;2023-11-22T00:06:35;6.80;1.00
10536;DHT22;5316;49.538;8.352;2023-11-22T00:09:03;6.80;1.00
10536;DHT22;5316;49.538;8.352;2023-11-22T00:11:30;6.70;1.00
10536;DHT22;5316;49.538;8.352;2023-11-22T00:14:00;6.70;1.00
10536;DHT22;5316;49.538;8.352;2023-11-22T00:16:33;6.70;1.00
10536;DHT22;5316;49.538;8.352;2023-11-22T00:19:02;6.60;16.80
10536;DHT22;5316;49.538;8.352;2023-11-22T00:21:37;6.60;19.20
10536;DHT22;5316;49.538;8.352;2023-11-22T00:24:10;6.60;51.00
10536;DHT22;5316;49.538;8.352;2023-11-22T00:26:39;6.60;7.20
10536;DHT22;5316;49.538;8.352;2023-11-22T00:29:16;6.70;34.50
10536;DHT22;5316;49.538;8.352;2023-11-22T00:31:47;6.70;15.50
10536;DHT22;5316;49.538;8.352;2023-11-22T00:34:16;6.60;1.00
10536;DHT22;5316;49.538;8.352;2023-11-22T00:36:48;6.60;1.00
10536;DHT22;5316;49.538;8.352;2023-11-22T00:39:20;6.60;1.00
10536;DHT22;5316;49.538;8.352;2023-11-22T00:41:50;6.60;1.00
10536;DHT22;5316;49.538;8.352;2023-11-22T00:44:20;6.50;1.00
10536;DHT22;5316;49.538;8.352;2023-11-22T00:46:56;6.50;1.00
10536;DHT22;5316;49.538;8.352;2023-11-22T00:49:28;6.50;1.00
10536;DHT22;5316;49.538;8.352;2023-11-22T00:51:57;6.50;1.00
10536;DHT22;5316;49.538;8.352;2023-11-22T00:54:28;6.50;1.00
10536;DHT22;5316;49.538;8.352;2023-11-22T00:56:58;6.50;1.00
10536;DHT22;5316;49.538;8.352;2023-11-22T00:59:33;6.40;1.00
10536;DHT22;5316;49.538;8.352;2023-11-22T01:02:07;6.40;1.00
10536;DHT22;5316;49.538;8.352;2023-11-22T01:04:35;6.40;1.00
10536;DHT22;5316;49.538;8.352;2023-11-22T01:07:16;6.30;1.00
10536;DHT22;5316;49.538;8.352;2023-11-22T01:09:44;6.30;1.00
10536;DHT22;5316;49.538;8.352;2023-11-22T01:12:11;6.20;1.00
10536;DHT22;5316;49.538;8.352;2023-11-22T01:14:48;6.30;1.00
10536;DHT22;5316;49.538;8.352;2023-11-22T01:17:18;6.20;1.00
10536;DHT22;5316;49.538;8.352;2023-11-22T01:19:50;6.20;1.00
10536;DHT22;5316;49.538;8.352;2023-11-22T01:22:34;6.10;1.00
10536;DHT22;5316;49.538;8.352;2023-11-22T01:25:09;6.10;1.00
10536;DHT22;5316;49.538;8.352;2023-11-22T01:27:36;6.00;1.00
10536;DHT22;5316;49.538;8.352;2023-11-22T01:30:08;6.00;1.00
10536;DHT22;5316;49.538;8.352;2023-11-22T01:32:36;5.90;1.00
10536;DHT22;5316;49.538;8.352;2023-11-22T01:35:07;5.90;1.00
10536;DHT22;5316;49.538;8.352;2023-11-22T01:37:43;5.80;99.90
10536;DHT22;5316;49.538;8.352;2023-11-22T01:40:14;5.80;99.90
10536;DHT22;5316;49.538;8.352;2023-11-22T01:42:46;5.80;99.90
10536;DHT22;5316;49.538;8.352;2023-11-22T01:45:22;5.60;99.90
10536;DHT22;5316;49.538;8.352;2023-11-22T01:48:03;5.60;99.90
10536;DHT22;5316;49.538;8.352;2023-11-22T01:50:52;5.50;99.90
10536;DHT22;5316;49.538;8.352;2023-11-22T01:53:39;5.50;99.90
10536;DHT22;5316;49.538;8.352;2023-11-22T01:56:28;5.40;99.90
10536;DHT22;5316;49.538;8.352;2023-11-22T01:59:14;5.40;99.90
10536;DHT22;5316;49.538;8.352;2023-11-22T02:02:12;5.30;99.90
10536;DHT22;5316;49.538;8.352;2023-11-22T02:04:46;5.30;1.00
10536;DHT22;5316;49.538;8.352;2023-11-22T02:07:50;5.20;99.90
10536;DHT22;5316;49.538;8.352;2023-11-22T02:10:56;5.10;1.00
10536;DHT22;5316;49.538;8.352;2023-11-22T02:16:40;5.10;1.00
10536;DHT22;5316;49.538;8.352;2023-11-22T02:19:19;5.10;32.10
10536;DHT22;5316;49.538;8.352;2023-11-22T02:22:20;5.10;99.90
10536;DHT22;5316;49.538;8.352;2023-11-22T02:25:03;5.00;99.90
10536;DHT22;5316;49.538;8.352;2023-11-22T02:31:05;5.00;99.90
10536;DHT22;5316;49.538;8.352;2023-11-22T02:37:02;5.10;1.00
10536;DHT22;5316;49.538;8.352;2023-11-22T02:40:09;5.10;1.00
10536;DHT22;5316;49.538;8.352;2023-11-22T02:43:05;5.10;1.00
10536;DHT22;5316;49.538;8.352;2023-11-22T02:46:11;4.90;1.00
10536;DHT22;5316;49.538;8.352;2023-11-22T02:49:07;4.80;1.00
10536;DHT22;5316;49.538;8.352;2023-11-22T02:51:53;4.80;23.40
10536;DHT22;5316;49.538;8.352;2023-11-22T02:54:44;4.80;58.40
10536;DHT22;5316;49.538;8.352;2023-11-22T02:57:21;4.70;95.30
10536;DHT22;5316;49.538;8.352;2023-11-22T03:00:24;4.70;99.90
10536;DHT22;5316;49.538;8.352;2023-11-22T03:03:23;4.70;99.90
10536;DHT22;5316;49.538;8.352;2023-11-22T03:08:10;4.70;99.90
10536;DHT22;5316;49.538;8.352;2023-11-22T03:09:19;4.60;99.90
10536;DHT22;5316;49.538;8.352;2023-11-22T03:12:46;4.60;99.90
10536;DHT22;5316;49.538;8.352;2023-11-22T03:15:42;4.60;99.90
10536;DHT22;5316;49.538;8.352;2023-11-22T03:21:42;4.50;99.90
10536;DHT22;5316;49.538;8.352;2023-11-22T03:24:27;4.50;99.90
10536;DHT22;5316;49.538;8.352;2023-11-22T03:27:14;4.40;99.90
10536;DHT22;5316;49.538;8.352;2023-11-22T03:30:26;4.50;99.90
10536;DHT22;5316;49.538;8.352;2023-11-22T03:33:14;4.50;99.90
10536;DHT22;5316;49.538;8.352;2023-11-22T03:36:18;4.40;99.90
10536;DHT22;5316;49.538;8.352;2023-11-22T03:41:50;4.40;99.90
10536;DHT22;5316;49.538;8.352;2023-11-22T03:44:34;4.40;99.90
10536;DHT22;5316;49.538;8.352;2023-11-22T03:50:48;4.40;99.90
10536;DHT22;5316;49.538;8.352;2023-11-22T03:53:34;4.30;99.90
10536;DHT22;5316;49.538;8.352;2023-11-22T03:56:12;4.30;99.90
10536;DHT22;5316;49.538;8.352;2023-11-22T03:59:05;4.20;99.90
10536;DHT22;5316;49.538;8.352;2023-11-22T04:01:45;4.20;99.90
10536;DHT22;5316;49.538;8.352;2023-11-22T04:04:42;4.20;99.90
10536;DHT22;5316;49.538;8.352;2023-11-22T04:07:19;4.20;72.90
10536;DHT22;5316;49.538;8.352;2023-11-22T04:10:10;4.30;48.80
10536;DHT22;5316;49.538;8.352;2023-11-22T04:16:19;4.20;77.60
10536;DHT22;5316;49.538;8.352;2023-11-22T04:19:16;4.20;80.00
10536;DHT22;5316;49.538;8.352;2023-11-22T04:22:02;4.10;95.30
10536;DHT22;5316;49.538;8.352;2023-11-22T04:28:05;4.20;56.70
10536;DHT22;5316;49.538;8.352;2023-11-22T04:33:46;4.10;89.60
10536;DHT22;5316;49.538;8.352;2023-11-22T04:36:34;4.10;99.90
10536;DHT22;5316;49.538;8.352;2023-11-22T04:39:56;4.10;99.90
10536;DHT22;5316;49.538;8.352;2023-11-22T04:42:39;4.00;99.90
10536;DHT22;5316;49.538;8.352;2023-11-22T04:48:49;4.00;99.90
10536;DHT22;5316;49.538;8.352;2023-11-22T04:51:33;4.00;99.90
10536;DHT22;5316;49.538;8.352;2023-11-22T04:57:45;4.10;99.90
10536;DHT22;5316;49.538;8.352;2023-11-22T05:03:55;4.00;50.10
10536;DHT22;5316;49.538;8.352;2023-11-22T05:06:47;3.90;47.40
10536;DHT22;5316;49.538;8.352;2023-11-22T05:19:11;3.90;99.90
10536;DHT22;5316;49.538;8.352;2023-11-22T05:22:02;3.80;99.90
10536;DHT22;5316;49.538;8.352;2023-11-22T05:28:42;3.80;99.90
10536;DHT22;5316;49.538;8.352;2023-11-22T05:31:47;3.80;99.90
10536;DHT22;5316;49.538;8.352;2023-11-22T05:34:47;3.70;99.90
10536;DHT22;5316;49.538;8.352;2023-11-22T05:38:19;3.70;99.90
10536;DHT22;5316;49.538;8.352;2023-11-22T05:44:26;3.70;99.90
10536;DHT22;5316;49.538;8.352;2023-11-22T05:48:02;3.70;99.90
10536;DHT22;5316;49.538;8.352;2023-11-22T05:54:48;3.60;99.90
10536;DHT22;5316;49.538;8.352;2023-11-22T05:57:39;3.60;99.90
10536;DHT22;5316;49.538;8.352;2023-11-22T06:03:32;3.60;99.90
10536;DHT22;5316;49.538;8.352;2023-11-22T06:12:50;3.50;99.90
10536;DHT22;5316;49.538;8.352;2023-11-22T06:15:53;3.40;99.90
10536;DHT22;5316;49.538;8.352;2023-11-22T06:22:05;3.40;99.90
10536;DHT22;5316;49.538;8.352;2023-11-22T06:31:35;3.40;99.90
10536;DHT22;5316;49.538;8.352;2023-11-22T06:34:36;3.40;99.90
10536;DHT22;5316;49.538;8.352;2023-11-22T06:37:49;3.30;99.90
10536;DHT22;5316;49.538;8.352;2023-11-22T06:40:35;3.40;17.10
10536;DHT22;5316;49.538;8.352;2023-11-22T06:44:28;3.30;21.80
10536;DHT22;5316;49.538;8.352;2023-11-22T06:47:21;3.30;29.10
10536;DHT22;5316;49.538;8.352;2023-11-22T06:50:35;3.20;73.40
10536;DHT22;5316;49.538;8.352;2023-11-22T06:56:19;3.20;42.00
10536;DHT22;5316;49.538;8.352;2023-11-22T07:09:13;3.20;50.80
10536;DHT22;5316;49.538;8.352;2023-11-22T07:12:01;3.20;17.60
10536;DHT22;5316;49.538;8.352;2023-11-22T07:14:50;3.20;1.00
10536;DHT22;5316;49.538;8.352;2023-11-22T07:24:44;3.10;61.80
10536;DHT22;5316;49.538;8.352;2023-11-22T07:27:48;3.20;1.00
10536;DHT22;5316;49.538;8.352;2023-11-22T07:30:59;3.10;1.00
10536;DHT22;5316;49.538;8.352;2023-11-22T07:36:49;3.20;1.00
10536;DHT22;5316;49.538;8.352;2023-11-22T07:46:00;3.10;99.90
10536;DHT22;5316;49.538;8.352;2023-11-22T08:23:05;3.30;99.90
10536;DHT22;5316;49.538;8.352;2023-11-22T08:26:03;3.30;99.90
10536;DHT22;5316;49.538;8.352;2023-11-22T08:29:15;3.30;1.00
10536;DHT22;5316;49.538;8.352;2023-11-22T08:32:15;3.30;1.00
10536;DHT22;5316;49.538;8.352;2023-11-22T08:34:46;3.40;99.90
10536;DHT22;5316;49.538;8.352;2023-11-22T08:37:48;3.30;1.00
10536;DHT22;5316;49.538;8.352;2023-11-22T08:43:55;3.40;1.00
10536;DHT22;5316;49.538;8.352;2023-11-22T08:49:40;3.50;99.90
10536;DHT22;5316;49.538;8.352;2023-11-22T08:52:29;3.50;99.90
10536;DHT22;5316;49.538;8.352;2023-11-22T08:55:25;3.60;99.90
10536;DHT22;5316;49.538;8.352;2023-11-22T08:58:39;3.60;99.90
10536;DHT22;5316;49.538;8.352;2023-11-22T09:01:45;3.60;1.00
10536;DHT22;5316;49.538;8.352;2023-11-22T09:05:31;3.70;1.00
10536;DHT22;5316;49.538;8.352;2023-11-22T09:08:01;3.70;1.00
10536;DHT22;5316;49.538;8.352;2023-11-22T09:13:48;3.70;99.90
10536;DHT22;5316;49.538;8.352;2023-11-22T09:20:12;3.80;71.00
10536;DHT22;5316;49.538;8.352;2023-11-22T09:23:16;3.80;84.70
10536;DHT22;5316;49.538;8.352;2023-11-22T09:26:21;3.90;31.10
10536;DHT22;5316;49.538;8.352;2023-11-22T09:29:22;4.00;24.60
10536;DHT22;5316;49.538;8.352;2023-11-22T09:32:07;4.20;1.00
10536;DHT22;5316;49.538;8.352;2023-11-22T09:38:40;4.10;1.00
10536;DHT22;5316;49.538;8.352;2023-11-22T09:41:39;4.20;1.00
10536;DHT22;5316;49.538;8.352;2023-11-22T09:44:40;4.20;1.00
10536;DHT22;5316;49.538;8.352;2023-11-22T09:47:29;4.20;1.00
10536;DHT22;5316;49.538;8.352;2023-11-22T09:50:50;4.10;1.00
10536;DHT22;5316;49.538;8.352;2023-11-22T09:54:05;4.00;1.00
10536;DHT22;5316;49.538;8.352;2023-11-22T09:57:54;4.00;1.00
10536;DHT22;5316;49.538;8.352;2023-11-22T10:03:41;3.90;55.30
10536;DHT22;5316;49.538;8.352;2023-11-22T10:06:33;3.80;1.00
10536;DHT22;5316;49.538;8.352;2023-11-22T10:09:20;3.90;31.90
10536;DHT22;5316;49.538;8.352;2023-11-22T10:12:07;3.80;29.80
10536;DHT22;5316;49.538;8.352;2023-11-22T10:18:20;3.80;1.00
10536;DHT22;5316;49.538;8.352;2023-11-22T10:21:29;3.70;99.90
10536;DHT22;5316;49.538;8.352;2023-11-22T10:24:29;3.80;99.90
10536;DHT22;5316;49.538;8.352;2023-11-22T10:31:27;3.90;39.60
10536;DHT22;5316;49.538;8.352;2023-11-22T10:34:18;4.00;1.00
10536;DHT22;5316;49.538;8.352;2023-11-22T10:37:35;4.00;91.50
10536;DHT22;5316;49.538;8.352;2023-11-22T10:43:45;4.10;1.00
10536;DHT22;5316;49.538;8.352;2023-11-22T10:46:46;4.20;1.00
10536;DHT22;5316;49.538;8.352;2023-11-22T10:51:08;4.20;1.00
10536;DHT22;5316;49.538;8.352;2023-11-22T10:53:21;4.30;1.00
10536;DHT22;5316;49.538;8.352;2023-11-22T10:59:24;4.50;1.00
10536;DHT22;5316;49.538;8.352;2023-11-22T12:31:58;5.40;99.90
10536;DHT22;5316;49.538;8.352;2023-11-22T12:53:08;5.70;99.90
10536;DHT22;5316;49.538;8.352;2023-11-22T13:00:54;5.80;1.00
10536;DHT22;5316;49.538;8.352;2023-11-22T13:13:09;5.80;99.90
10536;DHT22;5316;49.538;8.352;2023-11-22T13:16:39;5.70;99.90
10536;DHT22;5316;49.538;8.352;2023-11-22T13:25:37;5.60;99.90
10536;DHT22;5316;49.538;8.352;2023-11-22T13:28:06;5.40;99.90
10536;DHT22;5316;49.538;8.352;2023-11-22T13:30:34;5.30;99.90
10536;DHT22;5316;49.538;8.352;2023-11-22T13:33:01;5.30;99.90
10536;DHT22;5316;49.538;8.352;2023-11-22T13:35:29;5.40;1.00
10536;DHT22;5316;49.538;8.352;2023-11-22T13:37:58;5.40;1.00
10536;DHT22;5316;49.538;8.352;2023-11-22T13:40:27;5.50;99.90
10536;DHT22;5316;49.538;8.352;2023-11-22T13:42:57;5.50;99.90
10536;DHT22;5316;49.538;8.352;2023-11-22T13:45:26;5.60;99.90
10536;DHT22;5316;49.538;8.352;2023-11-22T13:47:55;5.60;99.90
10536;DHT22;5316;49.538;8.352;2023-11-22T13:50:24;5.60;99.90
10536;DHT22;5316;49.538;8.352;2023-11-22T13:52:54;5.50;99.90
10536;DHT22;5316;49.538;8.352;2023-11-22T13:55:22;5.60;99.90
10536;DHT22;5316;49.538;8.352;2023-11-22T13:57:50;5.60;1.00
10536;DHT22;5316;49.538;8.352;2023-11-22T14:00:24;5.60;99.90
10536;DHT22;5316;49.538;8.352;2023-11-22T14:02:56;5.50;99.90
10536;DHT22;5316;49.538;8.352;2023-11-22T14:05:23;5.50;99.90
10536;DHT22;5316;49.538;8.352;2023-11-22T14:07:51;5.50;99.90
10536;DHT22;5316;49.538;8.352;2023-11-22T14:10:19;5.40;99.90
10536;DHT22;5316;49.538;8.352;2023-11-22T14:12:48;5.40;1.00
10536;DHT22;5316;49.538;8.352;2023-11-22T14:15:26;5.40;1.00
10536;DHT22;5316;49.538;8.352;2023-11-22T14:21:21;5.10;1.00
10536;DHT22;5316;49.538;8.352;2023-11-22T14:23:56;5.10;1.00
10536;DHT22;5316;49.538;8.352;2023-11-22T14:26:29;5.10;1.00
10536;DHT22;5316;49.538;8.352;2023-11-22T14:29:02;5.20;1.00
10536;DHT22;5316;49.538;8.352;2023-11-22T14:31:33;5.10;1.00
10536;DHT22;5316;49.538;8.352;2023-11-22T14:34:14;5.10;1.00
10536;DHT22;5316;49.538;8.352;2023-11-22T14:36:51;5.10;1.00
10536;DHT22;5316;49.538;8.352;2023-11-22T14:39:29;5.10;1.00
10536;DHT22;5316;49.538;8.352;2023-11-22T14:42:01;5.00;1.00
10536;DHT22;5316;49.538;8.352;2023-11-22T14:44:47;5.00;1.00
10536;DHT22;5316;49.538;8.352;2023-11-22T14:47:28;4.90;1.00
10536;DHT22;5316;49.538;8.352;2023-11-22T14:50:03;4.80;40.00
10536;DHT22;5316;49.538;8.352;2023-11-22T14:52:46;4.70;90.00
10536;DHT22;5316;49.538;8.352;2023-11-22T14:55:18;5.10;99.90
10536;DHT22;5316;49.538;8.352;2023-11-22T14:57:54;4.80;99.90
10536;DHT22;5316;49.538;8.352;2023-11-22T15:00:32;5.10;99.90
10536;DHT22;5316;49.538;8.352;2023-11-22T15:03:06;4.80;99.90
10536;DHT22;5316;49.538;8.352;2023-11-22T15:05:41;4.50;99.90
10536;DHT22;5316;49.538;8.352;2023-11-22T15:08:17;4.40;99.90
10536;DHT22;5316;49.538;8.352;2023-11-22T15:10:57;4.30;99.90
10536;DHT22;5316;49.538;8.352;2023-11-22T15:13:34;4.30;99.90
10536;DHT22;5316;49.538;8.352;2023-11-22T15:16:10;4.30;99.90
10536;DHT22;5316;49.538;8.352;2023-11-22T15:18:48;4.10;99.90
10536;DHT22;5316;49.538;8.352;2023-11-22T15:21:34;4.00;99.90
10536;DHT22;5316;49.538;8.352;2023-11-22T15:24:11;4.00;1.00
10536;DHT22;5316;49.538;8.352;2023-11-22T15:26:41;3.90;1.00
10536;DHT22;5316;49.538;8.352;2023-11-22T15:29:20;3.60;1.00
10536;DHT22;5316;49.538;8.352;2023-11-22T15:31:47;3.70;1.00
10536;DHT22;5316;49.538;8.352;2023-11-22T15:34:20;3.70;1.00
10536;DHT22;5316;49.538;8.352;2023-11-22T15:36:58;3.70;1.00
10536;DHT22;5316;49.538;8.352;2023-11-22T15:39:27;3.60;1.00
10536;DHT22;5316;49.538;8.352;2023-11-22T15:42:01;4.80;1.00
10536;DHT22;5316;49.538;8.352;2023-11-22T15:44:29;3.10;1.00
10536;DHT22;5316;49.538;8.352;2023-11-22T15:46:57;3.50;5.20
10536;DHT22;5316;49.538;8.352;2023-11-22T15:49:30;3.40;1.00
10536;DHT22;5316;49.538;8.352;2023-11-22T15:52:01;3.40;99.80
10536;DHT22;5316;49.538;8.352;2023-11-22T15:54:34;3.40;99.90
10536;DHT22;5316;49.538;8.352;2023-11-22T15:57:01;3.30;99.90
10536;DHT22;5316;49.538;8.352;2023-11-22T15:59:39;3.30;99.90
10536;DHT22;5316;49.538;8.352;2023-11-22T16:02:06;3.50;99.90
10536;DHT22;5316;49.538;8.352;2023-11-22T16:04:36;3.30;65.20
10536;DHT22;5316;49.538;8.352;2023-11-22T16:07:39;3.10;91.60
10536;DHT22;5316;49.538;8.352;2023-11-22T16:10:09;3.30;99.90
10536;DHT22;5316;49.538;8.352;2023-11-22T16:12:39;2.90;99.90
10536;DHT22;5316;49.538;8.352;2023-11-22T16:15:07;3.20;99.90
10536;DHT22;5316;49.538;8.352;2023-11-22T16:17:34;3.20;99.90
10536;DHT22;5316;49.538;8.352;2023-11-22T16:20:02;3.20;99.90
10536;DHT22;5316;49.538;8.352;2023-11-22T16:22:36;3.20;99.90
10536;DHT22;5316;49.538;8.352;2023-11-22T16:25:05;3.60;1.00
10536;DHT22;5316;49.538;8.352;2023-11-22T16:27:34;3.20;1.00
10536;DHT22;5316;49.538;8.352;2023-11-22T16:30:01;3.20;99.90
10536;DHT22;5316;49.538;8.352;2023-11-22T16:32:29;3.60;1.00
10536;DHT22;5316;49.538;8.352;2023-11-22T16:34:56;4.70;99.90
10536;DHT22;5316;49.538;8.352;2023-11-22T16:37:23;3.50;1.00
10536;DHT22;5316;49.538;8.352;2023-11-22T16:39:49;2.50;1.00
10536;DHT22;5316;49.538;8.352;2023-11-22T16:42:16;3.20;1.00
10536;DHT22;5316;49.538;8.352;2023-11-22T16:44:45;3.20;99.90
10536;DHT22;5316;49.538;8.352;2023-11-22T16:47:13;3.10;99.90
10536;DHT22;5316;49.538;8.352;2023-11-22T16:49:43;3.10;99.90
10536;DHT22;5316;49.538;8.352;2023-11-22T16:52:10;3.10;1.00
10536;DHT22;5316;49.538;8.352;2023-11-22T16:54:39;3.30;1.00
10536;DHT22;5316;49.538;8.352;2023-11-22T16:57:07;3.10;1.00
10536;DHT22;5316;49.538;8.352;2023-11-22T16:59:38;3.10;1.00
10536;DHT22;5316;49.538;8.352;2023-11-22T17:02:06;3.10;1.00
10536;DHT22;5316;49.538;8.352;2023-11-22T17:04:36;3.10;1.00
10536;DHT22;5316;49.538;8.352;2023-11-22T17:07:03;3.00;1.00
10536;DHT22;5316;49.538;8.352;2023-11-22T17:09:31;3.10;99.90
10536;DHT22;5316;49.538;8.352;2023-11-22T17:11:59;3.40;99.90
10536;DHT22;5316;49.538;8.352;2023-11-22T17:14:26;3.40;99.90
10536;DHT22;5316;49.538;8.352;2023-11-22T17:16:53;3.00;99.90
10536;DHT22;5316;49.538;8.352;2023-11-22T17:19:21;3.10;99.90
10536;DHT22;5316;49.538;8.352;2023-11-22T17:21:47;3.00;99.90
10536;DHT22;5316;49.538;8.352;2023-11-22T17:24:15;3.00;99.90
10536;DHT22;5316;49.538;8.352;2023-11-22T17:26:42;3.00;99.90
10536;DHT22;5316;49.538;8.352;2023-11-22T17:29:08;3.00;99.90
10536;DHT22;5316;49.538;8.352;2023-11-22T17:31:35;3.10;99.90
10536;DHT22;5316;49.538;8.352;2023-11-22T17:34:02;3.10;99.90
10536;DHT22;5316;49.538;8.352;2023-11-22T17:36:30;3.10;99.90
10536;DHT22;5316;49.538;8.352;2023-11-22T17:38:57;3.10;99.90
10536;DHT22;5316;49.538;8.352;2023-11-22T17:41:24;3.10;99.90
10536;DHT22;5316;49.538;8.352;2023-11-22T17:43:51;3.40;99.90
10536;DHT22;5316;49.538;8.352;2023-11-22T17:46:17;3.10;1.00
10536;DHT22;5316;49.538;8.352;2023-11-22T17:48:55;3.10;99.90
10536;DHT22;5316;49.538;8.352;2023-11-22T17:51:23;3.10;99.90
10536;DHT22;5316;49.538;8.352;2023-11-22T17:53:51;3.00;99.90
10536;DHT22;5316;49.538;8.352;2023-11-22T17:56:18;3.20;1.00
10536;DHT22;5316;49.538;8.352;2023-11-22T17:58:46;3.10;1.00
10536;DHT22;5316;49.538;8.352;2023-11-22T18:01:12;3.60;1.00
10536;DHT22;5316;49.538;8.352;2023-11-22T18:03:39;3.00;1.00
10536;DHT22;5316;49.538;8.352;2023-11-22T18:06:07;3.00;1.00
10536;DHT22;5316;49.538;8.352;2023-11-22T18:08:35;3.00;1.00
10536;DHT22;5316;49.538;8.352;2023-11-22T18:11:03;4.20;1.00
10536;DHT22;5316;49.538;8.352;2023-11-22T18:13:30;2.70;1.00
10536;DHT22;5316;49.538;8.352;2023-11-22T18:15:57;3.00;1.00
10536;DHT22;5316;49.538;8.352;2023-11-22T18:18:24;3.00;1.00
10536;DHT22;5316;49.538;8.352;2023-11-22T18:20:51;3.30;1.00
10536;DHT22;5316;49.538;8.352;2023-11-22T18:23:18;2.90;1.00
10536;DHT22;5316;49.538;8.352;2023-11-22T18:25:45;2.90;1.00
10536;DHT22;5316;49.538;8.352;2023-11-22T18:28:13;2.90;69.90
10536;DHT22;5316;49.538;8.352;2023-11-22T18:30:40;2.90;99.90
10536;DHT22;5316;49.538;8.352;2023-11-22T18:33:08;2.80;1.00
10536;DHT22;5316;49.538;8.352;2023-11-22T18:35:35;2.80;1.00
10536;DHT22;5316;49.538;8.352;2023-11-22T18:38:04;3.30;1.00
10536;DHT22;5316;49.538;8.352;2023-11-22T18:40:32;3.20;1.00
10536;DHT22;5316;49.538;8.352;2023-11-22T18:42:59;4.00;1.00
10536;DHT22;5316;49.538;8.352;2023-11-22T18:45:27;2.60;99.90
10536;DHT22;5316;49.538;8.352;2023-11-22T18:47:54;3.10;99.90
10536;DHT22;5316;49.538;8.352;2023-11-22T18:50:22;2.70;99.90
10536;DHT22;5316;49.538;8.352;2023-11-22T18:52:49;2.50;99.90
10536;DHT22;5316;49.538;8.352;2023-11-22T18:55:16;2.50;99.90
10536;DHT22;5316;49.538;8.352;2023-11-22T18:57:43;3.00;99.90
10536;DHT22;5316;49.538;8.352;2023-11-22T19:00:11;2.50;99.90
10536;DHT22;5316;49.538;8.352;2023-11-22T19:02:40;2.50;1.00
10536;DHT22;5316;49.538;8.352;2023-11-22T19:05:09;2.60;1.00
10536;DHT22;5316;49.538;8.352;2023-11-22T19:07:37;2.60;1.00
10536;DHT22;5316;49.538;8.352;2023-11-22T19:10:07;2.60;99.90
10536;DHT22;5316;49.538;8.352;2023-11-22T19:12:35;2.60;99.90
10536;DHT22;5316;49.538;8.352;2023-11-22T19:15:02;2.60;99.90
10536;DHT22;5316;49.538;8.352;2023-11-22T19:17:31;2.60;99.90
10536;DHT22;5316;49.538;8.352;2023-11-22T19:19:59;2.60;99.90
10536;DHT22;5316;49.538;8.352;2023-11-22T19:22:25;2.60;99.90
10536;DHT22;5316;49.538;8.352;2023-11-22T19:24:52;2.50;99.90
10536;DHT22;5316;49.538;8.352;2023-11-22T19:27:19;2.50;99.90
10536;DHT22;5316;49.538;8.352;2023-11-22T19:29:46;2.50;99.90
10536;DHT22;5316;49.538;8.352;2023-11-22T19:32:12;2.50;99.90
10536;DHT22;5316;49.538;8.352;2023-11-22T19:34:43;2.50;1.00
10536;DHT22;5316;49.538;8.352;2023-11-22T19:37:11;2.50;1.00
10536;DHT22;5316;49.538;8.352;2023-11-22T19:39:37;2.50;1.00
10536;DHT22;5316;49.538;8.352;2023-11-22T19:42:04;2.50;1.00
10536;DHT22;5316;49.538;8.352;2023-11-22T19:44:31;2.50;99.90
10536;DHT22;5316;49.538;8.352;2023-11-22T19:46:58;2.60;99.90
10536;DHT22;5316;49.538;8.352;2023-11-22T19:49:25;2.60;99.90
10536;DHT22;5316;49.538;8.352;2023-11-22T19:51:52;2.60;99.90
10536;DHT22;5316;49.538;8.352;2023-11-22T19:54:20;2.60;99.90
10536;DHT22;5316;49.538;8.352;2023-11-22T19:56:47;2.70;99.90
10536;DHT22;5316;49.538;8.352;2023-11-22T19:59:14;2.70;13.10
10536;DHT22;5316;49.538;8.352;2023-11-22T20:01:41;2.70;1.00
10536;DHT22;5316;49.538;8.352;2023-11-22T20:04:08;2.70;1.00
10536;DHT22;5316;49.538;8.352;2023-11-22T20:06:36;2.80;1.00
10536;DHT22;5316;49.538;8.352;2023-11-22T20:09:03;2.80;1.00
10536;DHT22;5316;49.538;8.352;2023-11-22T20:11:31;2.70;1.00
10536;DHT22;5316;49.538;8.352;2023-11-22T20:13:59;2.70;1.00
10536;DHT22;5316;49.538;8.352;2023-11-22T20:17:22;2.70;1.00
10536;DHT22;5316;49.538;8.352;2023-11-22T21:08:02;2.20;1.00
10536;DHT22;5316;49.538;8.352;2023-11-22T21:14:52;2.20;1.00
10536;DHT22;5316;49.538;8.352;2023-11-22T21:24:34;2.10;1.00
10536;DHT22;5316;49.538;8.352;2023-11-22T21:30:30;2.10;1.00
10536;DHT22;5316;49.538;8.352;2023-11-22T21:31:29;2.20;1.00
10536;DHT22;5316;49.538;8.352;2023-11-22T21:34:18;2.10;12.70
10536;DHT22;5316;49.538;8.352;2023-11-22T21:37:18;2.10;99.90
10536;DHT22;5316;49.538;8.352;2023-11-22T21:43:39;2.20;1.00
10536;DHT22;5316;49.538;8.352;2023-11-22T21:46:25;2.20;99.90
10536;DHT22;5316;49.538;8.352;2023-11-22T21:49:31;2.20;99.90
10536;DHT22;5316;49.538;8.352;2023-11-22T21:52:47;2.20;99.90
10536;DHT22;5316;49.538;8.352;2023-11-22T22:09:26;2.30;99.90
10536;DHT22;5316;49.538;8.352;2023-11-22T22:15:52;2.30;1.00
10536;DHT22;5316;49.538;8.352;2023-11-22T22:18:41;2.20;1.00
10536;DHT22;5316;49.538;8.352;2023-11-22T22:24:43;2.40;99.90
10536;DHT22;5316;49.538;8.352;2023-11-22T22:27:57;2.40;99.90
10536;DHT22;5316;49.538;8.352;2023-11-22T22:31:00;2.50;1.00
10536;DHT22;5316;49.538;8.352;2023-11-22T22:34:04;2.50;1.00
10536;DHT22;5316;49.538;8.352;2023-11-22T22:37:30;2.50;99.90
10536;DHT22;5316;49.538;8.352;2023-11-22T22:44:16;2.60;99.90
10536;DHT22;5316;49.538;8.352;2023-11-22T22:51:22;2.60;53.90
10536;DHT22;5316;49.538;8.352;2023-11-22T22:54:23;2.70;1.00
10536;DHT22;5316;49.538;8.352;2023-11-22T22:57:23;2.70;99.90
10536;DHT22;5316;49.538;8.352;2023-11-22T23:00:25;2.70;74.60
10536;DHT22;5316;49.538;8.352;2023-11-22T23:03:17;2.60;99.90
10536;DHT22;5316;49.538;8.352;2023-11-22T23:09:54;2.60;99.90
10536;DHT22;5316;49.538;8.352;2023-11-22T23:12:47;2.70;99.90
10536;DHT22;5316;49.538;8.352;2023-11-22T23:22:08;2.70;99.90
10536;DHT22;5316;49.538;8.352;2023-11-22T23:31:36;2.80;99.90
10536;DHT22;5316;49.538;8.352;2023-11-22T23:34:57;2.70;6.10
10536;DHT22;5316;49.538;8.352;2023-11-22T23:37:57;2.80;1.00
10536;DHT22;5316;49.538;8.352;2023-11-22T23:40:54;2.80;1.00
10536;DHT22;5316;49.538;8.352;2023-11-22T23:44:19;2.80;1.00
10536;DHT22;5316;49.538;8.352;2023-11-22T23:47:24;2.80;1.00
10536;DHT22;5316;49.538;8.352;2023-11-22T23:50:29;2.80;1.00
10536;DHT22;5316;49.538;8.352;2023-11-22T23:53:37;2.80;1.00
10536;DHT22;5316;49.538;8.352;2023-11-22T23:57:11;2.80;1.00
